Aérodrome :
LOGIN :

S'inscrire | Disclaimer

   EN    FR    IT 

 










Légende :    VFR   VFR Marginal   IFR   IFR Intensif   IFR Très Intensif
Visi : 
Plafond : 
>= 8 km
>= 3000ft
5 à 8 km
1000 à 3000 ft
1500m à 5 km
500 à 1000 ft
800 à 1500m
200 à 500 ft
< 800m
< 200 ft
Symboles :   Orages  Brouillard  Fortes neiges  Fortes précipitations  Vent > 20 kt
SIGMETs :   Divers  Orages  Givrage  Turbulence  Onde Orograph.  Cendres Volcan.







- Altitude de l'aérodrome : 458 ft
- Voir les cartes d'approche


LFSI - St-Dizier

DERNIER METAR :
  • 181430Z AUTO VRB02KT CAVOK 28/12 Q1012

METARs EXPIRÉS :
  • 181400Z AUTO VRB03KT CAVOK 28/12 Q1013
  • 181330Z AUTO 13003KT 010V170 CAVOK 28/12 Q1013
  • 181300Z AUTO VRB03KT CAVOK 28/13 Q1013
  • 181230Z AUTO VRB02KT CAVOK 27/13 Q1013
  • 181200Z AUTO 09004KT 040V140 CAVOK 27/13 Q1014

TAF TAF LFSI
Valide du 18 à 15h jusqu'au 19 à 15h UTC


181400Z 1815/1915 13005KT CAVOK
TEMPO 1903/1907 VRB10G25KT SHRA BKN040TCU BKN100
TEMPO 1912/1915 VRB15G25KT 4000 SHRA BKN045TCU BKN100
PROB40
TEMPO 1914/1915 VRB15G35KT 3000 TSRA BKN045CB BKN100
Pas de NOTAMs connus pour ce terrain.



MET'MAP, la Météo Aéronautique d'un coup d'oeil ! - Copyright ORBIFLY Décembre 2007 - Disclaimer

ORBIFLY MET'MAP TEAM :

Programmation & Développement : Alexandra Zaïnal
Conception & Développement : Baudouin d'Aumeries
Co-Programmation & Développement : Marc-Olivier Méhu
Soutien technique & logistique : Manuel Goepfert

Contact : metmap@orbifly.com




SOURCES & CREDITS :

   NOAA